createdAt,value
2022-12-20T00:01:47.622Z,2.47
2022-12-20T00:04:14.891Z,2.17
2022-12-20T00:06:42.110Z,4.93
2022-12-20T00:09:10.024Z,4.03
2022-12-20T00:11:44.533Z,2.70
2022-12-20T00:14:14.204Z,4.20
2022-12-20T00:16:41.349Z,3.33
2022-12-20T00:19:12.450Z,3.20
2022-12-20T00:21:41.909Z,2.37
2022-12-20T00:24:10.439Z,3.27
2022-12-20T00:26:38.191Z,4.13
2022-12-20T00:29:08.076Z,3.23
2022-12-20T00:31:38.046Z,3.00
2022-12-20T00:34:05.307Z,3.40
2022-12-20T00:36:33.390Z,3.03
2022-12-20T00:39:03.496Z,4.80
2022-12-20T00:41:33.531Z,3.73
2022-12-20T00:44:03.794Z,2.47
2022-12-20T00:46:35.634Z,5.30
2022-12-20T00:49:03.007Z,4.17
2022-12-20T00:51:34.763Z,3.00
2022-12-20T00:54:01.935Z,2.27
2022-12-20T00:56:32.625Z,2.90
2022-12-20T00:59:04.958Z,2.80
2022-12-20T01:01:36.038Z,3.70
2022-12-20T01:04:05.783Z,3.00
2022-12-20T01:06:33.046Z,3.10
2022-12-20T01:09:00.674Z,2.93
2022-12-20T01:11:33.260Z,3.00
2022-12-20T01:14:04.666Z,3.00
2022-12-20T01:16:51.712Z,3.63
2022-12-20T01:19:19.397Z,3.43
2022-12-20T01:21:46.759Z,4.00
2022-12-20T01:24:21.143Z,3.37
2022-12-20T01:26:50.770Z,2.70
2022-12-20T01:29:24.697Z,2.30
2022-12-20T01:31:53.742Z,3.23
2022-12-20T01:34:23.235Z,3.13
2022-12-20T01:36:50.391Z,4.07
2022-12-20T01:39:20.074Z,2.93
2022-12-20T01:41:49.484Z,2.53
2022-12-20T01:44:19.393Z,6.23
2022-12-20T01:46:49.385Z,2.57
2022-12-20T01:49:24.858Z,4.10
2022-12-20T01:52:15.254Z,2.73
2022-12-20T01:55:00.638Z,3.37
2022-12-20T01:57:36.532Z,3.60
2022-12-20T02:00:08.740Z,2.73
2022-12-20T02:02:41.851Z,3.17
2022-12-20T02:05:14.783Z,2.60
2022-12-20T02:07:44.361Z,3.50
2022-12-20T02:10:13.967Z,2.53
2022-12-20T02:12:48.201Z,3.20
2022-12-20T02:15:23.249Z,3.53
2022-12-20T02:18:16.914Z,2.40
2022-12-20T02:20:52.913Z,2.27
2022-12-20T02:23:51.003Z,3.60
2022-12-20T02:26:34.207Z,1.77
2022-12-20T02:29:22.509Z,2.57
2022-12-20T02:31:52.941Z,3.60
2022-12-20T02:34:25.034Z,2.33
2022-12-20T02:36:52.439Z,3.80
2022-12-20T02:39:21.333Z,3.70
2022-12-20T02:42:13.701Z,2.77
2022-12-20T02:45:05.624Z,2.93
2022-12-20T02:48:17.216Z,6.67
2022-12-20T02:50:52.310Z,2.50
2022-12-20T02:53:22.189Z,2.10
2022-12-20T02:56:14.196Z,5.80
2022-12-20T02:58:52.512Z,2.47
2022-12-20T03:01:47.448Z,5.00
2022-12-20T03:04:15.723Z,2.67
2022-12-20T03:07:01.345Z,3.20
2022-12-20T03:09:32.861Z,3.07
2022-12-20T03:12:02.391Z,1.80
2022-12-20T03:14:33.823Z,3.90
2022-12-20T03:17:03.604Z,2.20
2022-12-20T03:19:31.275Z,2.50
2022-12-20T03:22:01.082Z,2.87
2022-12-20T03:24:30.287Z,1.70
2022-12-20T03:26:57.454Z,2.73
2022-12-20T03:29:24.591Z,3.37
2022-12-20T03:31:53.894Z,4.80
2022-12-20T03:34:23.083Z,2.73
2022-12-20T03:36:50.206Z,2.27
2022-12-20T03:39:17.407Z,1.90
2022-12-20T03:41:44.561Z,2.97
2022-12-20T03:44:11.743Z,2.77
2022-12-20T03:46:41.146Z,2.83
2022-12-20T03:49:08.310Z,3.43
2022-12-20T03:51:35.448Z,3.17
2022-12-20T03:54:07.252Z,3.07
2022-12-20T03:56:34.431Z,3.90
2022-12-20T03:59:01.625Z,2.50
2022-12-20T04:01:29.484Z,4.40
2022-12-20T04:03:57.259Z,2.37
2022-12-20T04:06:24.660Z,2.97
2022-12-20T04:08:53.896Z,2.50
2022-12-20T04:11:21.216Z,2.63
2022-12-20T04:13:50.689Z,4.60
2022-12-20T04:16:20.435Z,3.37
2022-12-20T04:18:47.562Z,2.03
2022-12-20T04:21:15.846Z,3.40
2022-12-20T04:23:43.545Z,2.50
2022-12-20T04:26:11.193Z,2.83
2022-12-20T04:28:41.417Z,2.30
2022-12-20T04:31:08.887Z,2.97
2022-12-20T04:33:36.795Z,3.90
2022-12-20T04:36:06.529Z,2.73
2022-12-20T04:38:33.849Z,4.23
2022-12-20T04:41:03.473Z,2.40
2022-12-20T04:43:30.764Z,3.97
2022-12-20T04:46:00.152Z,3.57
2022-12-20T04:51:18.745Z,2.97
2022-12-20T04:53:49.066Z,3.43
2022-12-20T04:56:23.298Z,2.53
2022-12-20T04:58:52.276Z,2.43
2022-12-20T05:01:20.342Z,6.30
2022-12-20T05:03:52.349Z,2.40
2022-12-20T05:06:21.663Z,3.30
2022-12-20T05:08:51.556Z,2.67
2022-12-20T05:11:21.238Z,2.60
2022-12-20T05:13:50.573Z,2.47
2022-12-20T05:16:17.720Z,3.43
2022-12-20T05:18:49.221Z,2.10
2022-12-20T05:21:35.539Z,6.27
2022-12-20T05:24:21.305Z,2.43
2022-12-20T05:26:53.041Z,3.40
2022-12-20T05:29:22.576Z,2.90
2022-12-20T05:31:49.821Z,2.70
2022-12-20T05:34:17.587Z,1.40
2022-12-20T05:36:47.221Z,1.83
2022-12-20T05:39:14.667Z,3.07
2022-12-20T05:41:44.014Z,1.67
2022-12-20T05:44:11.268Z,2.13
2022-12-20T05:46:40.558Z,2.13
2022-12-20T05:49:10.214Z,2.80
2022-12-20T05:51:40.575Z,2.47
2022-12-20T05:54:10.362Z,1.90
2022-12-20T05:56:37.501Z,2.13
2022-12-20T05:59:04.695Z,2.93
2022-12-20T06:01:32.038Z,2.87
2022-12-20T06:04:01.871Z,1.83
2022-12-20T06:06:29.091Z,3.63
2022-12-20T06:08:58.503Z,1.77
2022-12-20T06:11:30.433Z,2.90
2022-12-20T06:14:00.333Z,3.17
2022-12-20T06:16:27.572Z,2.17
2022-12-20T06:18:55.148Z,3.23
2022-12-20T06:21:22.593Z,2.83
2022-12-20T06:23:49.763Z,2.27
2022-12-20T06:26:16.938Z,3.73
2022-12-20T06:28:46.632Z,1.93
2022-12-20T06:31:13.846Z,1.83
2022-12-20T06:33:43.998Z,3.63
2022-12-20T06:36:15.715Z,2.47
2022-12-20T06:38:45.139Z,2.20
2022-12-20T06:41:12.949Z,2.43
2022-12-20T06:43:40.277Z,2.37
2022-12-20T06:46:09.563Z,2.50
2022-12-20T06:48:36.725Z,3.70
2022-12-20T06:51:06.561Z,2.23
2022-12-20T06:53:33.870Z,4.33
2022-12-20T06:56:00.996Z,1.37
2022-12-20T06:58:32.743Z,3.37
2022-12-20T07:01:00.835Z,2.33
2022-12-20T07:03:28.295Z,8.73
2022-12-20T07:05:56.075Z,4.77
2022-12-20T07:08:27.812Z,3.70
2022-12-20T07:10:55.056Z,2.43
2022-12-20T07:13:22.710Z,2.23
2022-12-20T07:15:49.823Z,5.07
2022-12-20T07:18:19.109Z,3.97
2022-12-20T07:20:48.750Z,6.00
2022-12-20T07:23:15.861Z,2.43
2022-12-20T07:25:54.287Z,3.57
2022-12-20T07:28:24.396Z,4.93
2022-12-20T07:30:53.936Z,3.90
2022-12-20T07:33:23.206Z,3.00
2022-12-20T07:38:40.097Z,3.83
2022-12-20T07:41:18.397Z,5.63
2022-12-20T07:43:45.575Z,3.50
2022-12-20T07:46:18.934Z,3.47
2022-12-20T07:48:48.633Z,4.37
2022-12-20T07:51:26.321Z,6.97
2022-12-20T07:54:05.661Z,5.57
2022-12-20T07:56:42.013Z,3.63
2022-12-20T07:59:11.578Z,2.13
2022-12-20T08:01:39.681Z,3.53
2022-12-20T08:04:19.643Z,4.97
2022-12-20T08:06:50.734Z,4.23
2022-12-20T08:09:20.850Z,4.07
2022-12-20T08:11:48.967Z,4.57
2022-12-20T08:14:18.630Z,4.73
2022-12-20T08:16:48.138Z,3.13
2022-12-20T08:19:17.510Z,3.10
2022-12-20T08:21:44.639Z,2.77
2022-12-20T08:24:13.989Z,3.13
2022-12-20T08:26:44.522Z,4.17
2022-12-20T08:29:14.078Z,2.33
2022-12-20T08:31:50.060Z,2.67
2022-12-20T08:34:20.281Z,2.63
2022-12-20T08:36:49.528Z,2.27
2022-12-20T08:39:16.685Z,5.57
2022-12-20T08:41:46.380Z,4.77
2022-12-20T08:44:18.147Z,5.00
2022-12-20T08:46:45.432Z,1.40
2022-12-20T08:49:17.459Z,3.80
2022-12-20T08:51:44.728Z,3.83
2022-12-20T08:54:11.990Z,3.53
2022-12-20T08:56:41.515Z,2.20
2022-12-20T08:59:08.737Z,2.87
2022-12-20T09:01:38.163Z,3.17
2022-12-20T09:04:08.142Z,3.40
2022-12-20T09:06:35.715Z,3.53
2022-12-20T09:09:04.057Z,3.57
2022-12-20T09:11:33.901Z,3.40
2022-12-20T09:14:01.501Z,2.03
2022-12-20T09:16:33.961Z,4.33
2022-12-20T09:19:06.290Z,2.57
2022-12-20T09:21:35.188Z,3.77
2022-12-20T09:24:02.505Z,2.97
2022-12-20T09:26:30.735Z,4.37
2022-12-20T09:29:02.077Z,3.80
2022-12-20T09:31:31.828Z,2.77
2022-12-20T09:34:00.092Z,5.63
2022-12-20T09:36:29.283Z,3.53
2022-12-20T09:38:57.020Z,2.50
2022-12-20T09:41:44.230Z,4.57
2022-12-20T09:44:32.392Z,5.10
2022-12-20T09:47:10.458Z,2.67
2022-12-20T09:49:43.013Z,3.03
2022-12-20T09:52:40.137Z,2.40
2022-12-20T09:55:23.297Z,3.87
2022-12-20T09:58:17.264Z,4.87
2022-12-20T10:00:53.586Z,7.00
2022-12-20T10:03:40.036Z,4.57
2022-12-20T10:06:35.237Z,4.07
2022-12-20T10:09:11.659Z,3.90
2022-12-20T10:11:56.824Z,3.93
2022-12-20T10:15:00.615Z,3.67
2022-12-20T10:17:49.058Z,3.80
2022-12-20T10:20:21.311Z,4.80
2022-12-20T10:23:15.337Z,3.13
2022-12-20T10:25:46.145Z,2.00
2022-12-20T10:28:16.454Z,4.47
2022-12-20T10:30:46.201Z,4.07
2022-12-20T10:33:25.384Z,2.53
2022-12-20T10:36:14.875Z,4.07
2022-12-20T10:38:50.703Z,3.77
2022-12-20T10:41:24.230Z,4.67
2022-12-20T10:44:04.152Z,3.60
2022-12-20T10:46:41.609Z,5.17
2022-12-20T10:49:28.822Z,4.83
2022-12-20T10:52:01.963Z,3.93
2022-12-20T10:54:33.532Z,2.87
2022-12-20T10:57:04.126Z,3.63
2022-12-20T10:59:37.900Z,5.40
2022-12-20T11:02:36.755Z,3.53
2022-12-20T11:05:10.489Z,2.53
2022-12-20T11:08:24.758Z,5.93
2022-12-20T11:10:44.071Z,4.13
2022-12-20T11:13:28.048Z,4.90
2022-12-20T11:16:01.479Z,2.93
2022-12-20T11:19:06.874Z,3.70
2022-12-20T11:21:41.992Z,4.30
2022-12-20T11:24:31.647Z,4.43
2022-12-20T11:27:18.272Z,2.57
2022-12-20T11:30:16.181Z,3.97
2022-12-20T11:33:18.335Z,3.27
2022-12-20T11:36:01.147Z,4.63
2022-12-20T11:38:59.040Z,5.67
2022-12-20T11:42:04.954Z,3.70
2022-12-20T11:44:56.372Z,4.80
2022-12-20T11:47:50.131Z,2.80
2022-12-20T11:50:29.138Z,5.00
2022-12-20T11:53:08.887Z,3.17
2022-12-20T11:55:43.188Z,3.00
2022-12-20T11:58:21.898Z,2.67
2022-12-20T12:01:13.589Z,5.37
2022-12-20T12:03:45.163Z,4.07
2022-12-20T12:06:26.241Z,3.50
2022-12-20T12:09:06.731Z,3.63
2022-12-20T12:12:06.762Z,6.67
2022-12-20T12:15:00.780Z,3.53
2022-12-20T12:17:38.334Z,4.33
2022-12-20T12:20:47.273Z,4.70
2022-12-20T12:23:30.454Z,4.13
2022-12-20T12:26:05.586Z,3.63
2022-12-20T12:28:33.748Z,5.07
2022-12-20T12:31:10.825Z,5.10
2022-12-20T12:33:50.186Z,4.40
2022-12-20T12:36:48.418Z,5.00
2022-12-20T12:39:26.968Z,2.97
2022-12-20T12:42:12.228Z,2.90
2022-12-20T12:45:03.961Z,3.07
2022-12-20T12:47:54.659Z,5.87
2022-12-20T12:50:46.090Z,5.50
2022-12-20T12:53:22.427Z,3.60
2022-12-20T12:56:12.716Z,4.00
2022-12-20T12:58:48.504Z,6.67
2022-12-20T13:01:57.207Z,2.73
2022-12-20T13:04:29.385Z,3.07
2022-12-20T13:07:01.131Z,3.03
2022-12-20T13:09:30.893Z,3.40
2022-12-20T13:12:02.402Z,2.67
2022-12-20T13:14:31.631Z,3.87
2022-12-20T13:17:13.815Z,3.43
2022-12-20T13:19:54.992Z,4.40
2022-12-20T13:22:25.734Z,3.73
2022-12-20T13:24:59.492Z,3.13
2022-12-20T13:27:40.748Z,4.90
2022-12-20T13:30:08.132Z,3.90
2022-12-20T13:32:49.446Z,4.83
2022-12-20T13:35:25.743Z,4.23
2022-12-20T13:38:04.013Z,4.23
2022-12-20T13:40:44.423Z,4.27
2022-12-20T13:43:20.139Z,3.63
2022-12-20T13:45:53.443Z,5.77
2022-12-20T13:48:27.884Z,4.73
2022-12-20T13:50:58.174Z,3.47
2022-12-20T13:53:28.521Z,3.80
2022-12-20T13:55:56.344Z,3.70
2022-12-20T13:58:37.854Z,3.97
2022-12-20T14:01:13.348Z,9.00
2022-12-20T14:03:48.152Z,3.13
2022-12-20T14:06:24.526Z,4.20
2022-12-20T14:08:55.850Z,5.33
2022-12-20T14:11:28.646Z,3.67
2022-12-20T14:13:59.842Z,8.87
2022-12-20T14:16:29.583Z,3.93
2022-12-20T14:18:57.120Z,4.83
2022-12-20T14:21:25.761Z,6.93
2022-12-20T14:23:56.665Z,4.03
2022-12-20T14:26:29.963Z,4.43
2022-12-20T14:28:58.917Z,3.23
2022-12-20T14:31:32.275Z,3.57
2022-12-20T14:34:07.997Z,4.17
2022-12-20T14:36:36.178Z,4.90
2022-12-20T14:39:35.967Z,4.47
2022-12-20T14:42:09.832Z,5.87
2022-12-20T14:44:37.194Z,4.13
2022-12-20T14:47:17.900Z,4.03
2022-12-20T14:49:52.477Z,4.10
2022-12-20T14:52:38.967Z,3.93
2022-12-20T14:55:10.225Z,5.50
2022-12-20T14:57:37.830Z,4.23
2022-12-20T15:00:23.178Z,4.93
2022-12-20T15:03:02.087Z,4.90
2022-12-20T15:05:36.002Z,5.20
2022-12-20T15:08:24.207Z,3.10
2022-12-20T15:11:03.221Z,3.63
2022-12-20T15:13:39.781Z,4.80
2022-12-20T15:16:19.658Z,4.17
2022-12-20T15:18:54.313Z,5.47
2022-12-20T15:21:35.756Z,5.20
2022-12-20T15:24:08.369Z,4.73
2022-12-20T15:26:40.551Z,6.50
2022-12-20T15:29:07.794Z,4.50
2022-12-20T15:31:36.515Z,6.43
2022-12-20T15:34:31.024Z,6.37
2022-12-20T15:37:00.353Z,4.40
2022-12-20T15:39:28.276Z,4.60
2022-12-20T15:41:58.380Z,6.60
2022-12-20T15:44:29.364Z,4.00
2022-12-20T15:46:56.659Z,5.40
2022-12-20T15:49:29.682Z,5.50
2022-12-20T15:51:56.910Z,3.83
2022-12-20T15:54:29.094Z,4.70
2022-12-20T15:56:58.254Z,4.43
2022-12-20T15:59:58.817Z,4.10
2022-12-20T16:02:21.170Z,7.77
2022-12-20T16:04:51.558Z,6.33
2022-12-20T16:07:19.075Z,4.70
2022-12-20T16:09:46.193Z,5.33
2022-12-20T16:12:35.666Z,4.07
2022-12-20T16:15:03.367Z,4.70
2022-12-20T16:17:37.654Z,6.10
2022-12-20T16:20:08.786Z,4.47
2022-12-20T16:22:35.927Z,4.87
2022-12-20T16:25:05.655Z,5.00
2022-12-20T16:27:32.771Z,4.63
2022-12-20T16:29:59.915Z,3.37
2022-12-20T16:32:29.093Z,3.53
2022-12-20T16:34:56.272Z,4.23
2022-12-20T16:37:25.487Z,5.20
2022-12-20T16:39:52.597Z,4.73
2022-12-20T16:42:23.038Z,5.93
2022-12-20T16:44:54.366Z,6.73
2022-12-20T16:47:24.546Z,6.07
2022-12-20T16:49:53.965Z,3.60
2022-12-20T16:52:23.876Z,4.90
2022-12-20T16:54:51.677Z,4.13
2022-12-20T16:57:21.886Z,4.97
2022-12-20T16:59:49.162Z,5.27
2022-12-20T17:02:32.849Z,4.60
2022-12-20T17:05:02.540Z,5.20
2022-12-20T17:07:29.716Z,3.57
2022-12-20T17:10:12.392Z,5.97
2022-12-20T17:12:41.806Z,6.20
2022-12-20T17:15:40.552Z,5.47
2022-12-20T17:18:08.585Z,5.47
2022-12-20T17:20:37.133Z,4.73
2022-12-20T17:25:54.183Z,5.20
2022-12-20T17:28:26.329Z,5.00
2022-12-20T17:30:56.021Z,6.10
2022-12-20T17:33:23.144Z,4.33
2022-12-20T17:35:55.163Z,6.10
2022-12-20T17:38:22.661Z,7.17
2022-12-20T17:40:49.832Z,5.87
2022-12-20T17:43:19.297Z,5.90
2022-12-20T17:45:48.833Z,7.97
2022-12-20T17:48:18.582Z,5.57
2022-12-20T17:50:45.705Z,7.27
2022-12-20T17:53:12.998Z,5.50
2022-12-20T17:55:40.168Z,6.20
2022-12-20T17:58:12.012Z,6.80
2022-12-20T18:00:39.746Z,7.03
2022-12-20T18:03:07.260Z,7.63
2022-12-20T18:05:40.631Z,5.17
2022-12-20T18:08:11.154Z,7.70
2022-12-20T18:10:40.457Z,7.47
2022-12-20T18:13:10.382Z,5.60
2022-12-20T18:15:42.195Z,6.00
2022-12-20T18:18:09.377Z,4.80
2022-12-20T18:20:38.698Z,5.27
2022-12-20T18:23:05.835Z,6.23
2022-12-20T18:25:32.970Z,6.63
2022-12-20T18:28:02.429Z,6.17
2022-12-20T18:30:34.169Z,5.80
2022-12-20T18:33:01.338Z,6.83
2022-12-20T18:35:33.032Z,5.77
2022-12-20T18:38:00.169Z,6.67
2022-12-20T18:40:29.409Z,6.37
2022-12-20T18:42:59.674Z,5.73
2022-12-20T18:45:34.777Z,5.20
2022-12-20T18:48:06.834Z,6.33
2022-12-20T18:50:38.833Z,4.47
2022-12-20T18:53:10.618Z,4.87
2022-12-20T18:55:39.039Z,5.07
2022-12-20T18:58:06.153Z,5.23
2022-12-20T19:00:33.864Z,6.80
2022-12-20T19:03:02.326Z,5.83
2022-12-20T19:05:33.289Z,3.97
2022-12-20T19:08:00.751Z,4.83
2022-12-20T19:10:33.136Z,5.17
2022-12-20T19:13:05.546Z,6.17
2022-12-20T19:15:35.268Z,5.47
2022-12-20T19:18:09.131Z,4.10
2022-12-20T19:20:40.869Z,4.60
2022-12-20T19:23:08.465Z,5.27
2022-12-20T19:25:40.263Z,4.20
2022-12-20T19:28:09.712Z,4.40
2022-12-20T19:30:36.869Z,7.50
2022-12-20T19:33:04.089Z,6.03
2022-12-20T19:35:54.736Z,5.70
2022-12-20T19:38:22.944Z,4.93
2022-12-20T19:40:53.949Z,4.57
2022-12-20T19:43:21.259Z,4.73
2022-12-20T19:45:48.417Z,5.33
2022-12-20T19:48:15.586Z,5.17
2022-12-20T19:50:42.714Z,4.60
2022-12-20T19:53:12.348Z,4.03
2022-12-20T19:55:39.522Z,4.83
2022-12-20T19:58:07.113Z,4.33
2022-12-20T20:00:38.418Z,5.37
2022-12-20T20:03:05.856Z,5.37
2022-12-20T20:05:35.014Z,4.47
2022-12-20T20:08:04.646Z,3.90
2022-12-20T20:10:31.809Z,5.70
2022-12-20T20:12:59.053Z,4.00
2022-12-20T20:15:28.526Z,5.00
2022-12-20T20:17:58.570Z,3.90
2022-12-20T20:20:25.726Z,4.30
2022-12-20T20:22:53.031Z,3.93
2022-12-20T20:25:22.688Z,4.67
2022-12-20T20:27:49.928Z,3.27
2022-12-20T20:30:17.344Z,4.10
2022-12-20T20:32:47.103Z,3.20
2022-12-20T20:35:19.471Z,3.73
2022-12-20T20:37:46.673Z,4.47
2022-12-20T20:40:18.419Z,3.83
2022-12-20T20:42:45.515Z,3.63
2022-12-20T20:45:12.677Z,4.43
2022-12-20T20:47:43.577Z,4.37
2022-12-20T20:50:11.014Z,2.93
2022-12-20T20:52:40.607Z,3.27
2022-12-20T20:55:08.489Z,3.33
2022-12-20T20:57:35.601Z,4.83
2022-12-20T21:00:03.835Z,3.23
2022-12-20T21:02:31.261Z,3.90
2022-12-20T21:07:48.024Z,3.27
2022-12-20T21:10:15.293Z,3.00
2022-12-20T21:12:43.066Z,4.63
2022-12-20T21:15:24.518Z,5.10
2022-12-20T21:17:51.933Z,4.23
2022-12-20T21:20:26.504Z,4.73
2022-12-20T21:22:54.033Z,3.23
2022-12-20T21:25:23.641Z,3.53
2022-12-20T21:27:50.739Z,3.77
2022-12-20T21:30:18.033Z,3.43
2022-12-20T21:32:45.856Z,3.40
2022-12-20T21:35:17.340Z,3.57
2022-12-20T21:37:47.540Z,3.27
2022-12-20T21:40:16.983Z,3.53
2022-12-20T21:42:46.382Z,3.43
2022-12-20T21:45:13.540Z,4.00
2022-12-20T21:47:45.555Z,4.37
2022-12-20T21:50:17.190Z,3.90
2022-12-20T21:52:46.640Z,3.87
2022-12-20T21:55:16.087Z,3.50
2022-12-20T21:57:44.073Z,4.50
2022-12-20T22:00:12.073Z,5.00
2022-12-20T22:02:41.399Z,5.53
2022-12-20T22:05:09.517Z,6.03
2022-12-20T22:07:39.129Z,4.00
2022-12-20T22:10:08.130Z,4.87
2022-12-20T22:12:35.255Z,4.93
2022-12-20T22:15:05.081Z,4.50
2022-12-20T22:17:33.496Z,5.37
2022-12-20T22:20:02.735Z,5.47
2022-12-20T22:22:32.084Z,5.10
2022-12-20T22:24:59.187Z,5.33
2022-12-20T22:27:26.366Z,6.03
2022-12-20T22:29:53.509Z,5.07
2022-12-20T22:32:20.693Z,5.10
2022-12-20T22:34:50.127Z,5.17
2022-12-20T22:37:17.330Z,4.70
2022-12-20T22:39:49.170Z,5.93
2022-12-20T22:42:19.119Z,5.43
2022-12-20T22:44:46.305Z,6.87
2022-12-20T22:47:13.442Z,6.33
2022-12-20T22:49:41.905Z,7.13
2022-12-20T22:52:09.103Z,6.67
2022-12-20T22:54:36.251Z,7.33
2022-12-20T22:57:06.598Z,7.57
2022-12-20T22:59:34.732Z,8.37
2022-12-20T23:02:02.136Z,7.60
2022-12-20T23:04:34.260Z,9.37
2022-12-20T23:07:03.908Z,10.07
2022-12-20T23:09:31.091Z,10.20
2022-12-20T23:12:16.687Z,12.10
2022-12-20T23:15:04.776Z,11.90
2022-12-20T23:17:35.035Z,11.50
2022-12-20T23:20:21.015Z,12.30
2022-12-20T23:22:51.233Z,13.63
2022-12-20T23:25:22.106Z,13.13
2022-12-20T23:27:52.452Z,13.73
2022-12-20T23:30:22.844Z,14.00
2022-12-20T23:32:53.648Z,14.97
2022-12-20T23:35:21.366Z,15.53
2022-12-20T23:37:48.861Z,14.50
2022-12-20T23:40:16.941Z,15.90
2022-12-20T23:42:44.667Z,17.57
2022-12-20T23:45:11.870Z,15.73
2022-12-20T23:47:39.053Z,17.77
2022-12-20T23:50:06.682Z,19.63
2022-12-20T23:52:36.774Z,21.60
2022-12-20T23:55:04.262Z,19.13
2022-12-20T23:57:31.705Z,17.83
